Time,TemperatureF,DewpointF,PressureIn,WindDirection,WindDirectionDegrees,WindSpeedMPH,WindSpeedGustMPH,Humidity,HourlyPrecipIn,Conditions,Clouds,dailyrainin,SoftwareType,DateUTC
2013-12-20 00:04:00,11.7,4.5,29.90,North,0,17.0,17.0,72,0.00,,,0.00,meteohub,2013-12-20 06:04:00,
2013-12-20 00:09:00,11.7,4.5,29.90,North,0,15.0,17.0,72,0.00,,,0.00,meteohub,2013-12-20 06:09:00,
2013-12-20 00:14:00,11.7,4.5,29.90,North,0,15.0,17.0,72,0.00,,,0.00,meteohub,2013-12-20 06:14:00,
2013-12-20 00:19:00,11.7,4.5,29.90,North,0,13.0,17.0,72,0.00,,,0.00,meteohub,2013-12-20 06:19:00,
2013-12-20 00:25:00,11.7,4.5,29.90,North,0,12.0,15.0,72,0.00,,,0.00,meteohub,2013-12-20 06:25:00,
2013-12-20 00:30:00,11.7,4.5,29.89,NNE,23,13.0,15.0,72,0.00,,,0.00,meteohub,2013-12-20 06:30:00,
2013-12-20 00:35:00,11.7,4.5,29.89,NNE,23,10.0,14.0,72,0.00,,,0.00,meteohub,2013-12-20 06:35:00,
2013-12-20 00:40:00,11.5,4.3,29.89,North,0,11.0,13.0,72,0.00,,,0.00,meteohub,2013-12-20 06:40:00,
2013-12-20 00:45:00,11.7,4.5,29.90,NE,45,12.0,15.0,72,0.00,,,0.00,meteohub,2013-12-20 06:45:00,
2013-12-20 00:50:00,11.7,4.5,29.88,NNE,23,13.0,15.0,72,0.00,,,0.00,meteohub,2013-12-20 06:50:00,
2013-12-20 00:55:00,11.7,4.5,29.88,NNE,23,11.0,15.0,72,0.00,,,0.00,meteohub,2013-12-20 06:55:00,
2013-12-20 01:01:00,11.7,4.5,29.88,North,0,12.0,13.0,72,0.00,,,0.00,meteohub,2013-12-20 07:01:00,
2013-12-20 01:06:00,11.7,4.1,29.88,SW,225,13.0,13.0,71,0.00,,,0.00,meteohub,2013-12-20 07:06:00,
2013-12-20 01:11:00,11.7,4.1,29.88,North,0,11.0,14.0,71,0.00,,,0.00,meteohub,2013-12-20 07:11:00,
2013-12-20 01:16:00,11.7,4.1,29.88,North,0,11.0,15.0,71,0.00,,,0.00,meteohub,2013-12-20 07:16:00,
2013-12-20 01:22:00,11.7,4.1,29.88,North,0,12.0,15.0,71,0.00,,,0.00,meteohub,2013-12-20 07:22:00,
2013-12-20 01:27:00,11.5,3.9,29.89,North,0,11.0,15.0,71,0.00,,,0.00,meteohub,2013-12-20 07:27:00,
2013-12-20 01:32:00,11.5,3.9,29.88,North,0,11.0,13.0,71,0.00,,,0.00,meteohub,2013-12-20 07:32:00,
2013-12-20 01:38:00,11.3,3.4,29.88,North,0,9.0,13.0,70,0.00,,,0.00,meteohub,2013-12-20 07:38:00,
2013-12-20 01:43:00,11.1,3.2,29.88,NNE,23,14.0,14.0,70,0.00,,,0.00,meteohub,2013-12-20 07:43:00,
2013-12-20 01:48:00,11.1,3.2,29.88,North,0,13.0,15.0,70,0.00,,,0.00,meteohub,2013-12-20 07:48:00,
2013-12-20 01:53:00,10.9,3.0,29.88,NE,45,11.0,15.0,70,0.00,,,0.00,meteohub,2013-12-20 07:53:00,
2013-12-20 01:59:00,10.8,2.8,29.88,NE,45,11.0,15.0,70,0.00,,,0.00,meteohub,2013-12-20 07:59:00,
2013-12-20 02:04:00,10.6,2.5,29.88,North,0,11.0,14.0,69,0.00,,,0.00,meteohub,2013-12-20 08:04:00,
2013-12-20 02:09:00,10.4,2.3,29.88,North,0,9.0,14.0,69,0.00,,,0.00,meteohub,2013-12-20 08:09:00,
2013-12-20 02:12:00,10.2,0.9,29.88,North,0,12.0,14.0,65,0.00,,,0.00,meteohub,2013-12-20 08:12:00,
2013-12-20 02:22:00,9.7,0.0,29.88,North,0,12.0,12.0,64,0.00,,,0.00,meteohub,2013-12-20 08:22:00,
2013-12-20 02:27:00,9.5,-0.2,29.88,North,0,11.0,12.0,64,0.00,,,0.00,meteohub,2013-12-20 08:27:00,
2013-12-20 02:32:00,9.1,-0.6,29.88,North,0,11.0,12.0,64,0.00,,,0.00,meteohub,2013-12-20 08:32:00,
2013-12-20 02:37:00,9.0,-0.8,29.88,North,0,12.0,13.0,64,0.00,,,0.00,meteohub,2013-12-20 08:37:00,
2013-12-20 02:43:00,8.6,-1.1,29.88,North,0,11.0,13.0,64,0.00,,,0.00,meteohub,2013-12-20 08:43:00,
2013-12-20 02:48:00,8.6,-1.1,29.88,North,0,11.0,13.0,64,0.00,,,0.00,meteohub,2013-12-20 08:48:00,
2013-12-20 02:53:00,8.4,-1.3,29.88,North,0,11.0,15.0,64,0.00,,,0.00,meteohub,2013-12-20 08:53:00,
2013-12-20 02:58:00,8.2,-1.5,29.88,North,0,10.0,15.0,64,0.00,,,0.00,meteohub,2013-12-20 08:58:00,
2013-12-20 03:03:00,8.1,-1.7,29.88,North,0,11.0,15.0,64,0.00,,,0.00,meteohub,2013-12-20 09:03:00,
2013-12-20 03:09:00,8.1,-1.7,29.88,North,0,10.0,13.0,64,0.00,,,0.00,meteohub,2013-12-20 09:09:00,
2013-12-20 03:15:00,7.7,-2.0,29.88,North,0,9.0,12.0,64,0.00,,,0.00,meteohub,2013-12-20 09:15:00,
2013-12-20 03:20:00,7.9,-1.5,29.88,North,0,10.0,12.0,65,0.00,,,0.00,meteohub,2013-12-20 09:20:00,
2013-12-20 03:25:00,7.9,-1.5,29.88,North,0,11.0,12.0,65,0.00,,,0.00,meteohub,2013-12-20 09:25:00,
2013-12-20 03:31:00,7.7,-1.7,29.88,North,0,11.0,12.0,65,0.00,,,0.00,meteohub,2013-12-20 09:31:00,
2013-12-20 03:36:00,7.7,-1.7,29.88,North,0,12.0,13.0,65,0.00,,,0.00,meteohub,2013-12-20 09:36:00,
2013-12-20 03:41:00,7.7,-1.7,29.88,North,0,12.0,13.0,65,0.00,,,0.00,meteohub,2013-12-20 09:41:00,
2013-12-20 03:46:00,7.9,-1.1,29.88,North,0,12.0,13.0,66,0.00,,,0.00,meteohub,2013-12-20 09:46:00,
2013-12-20 03:51:00,8.1,-0.9,29.88,North,0,11.0,13.0,66,0.00,,,0.00,meteohub,2013-12-20 09:51:00,
2013-12-20 03:56:00,8.1,-0.9,29.88,North,0,10.0,13.0,66,0.00,,,0.00,meteohub,2013-12-20 09:56:00,
2013-12-20 04:02:00,8.2,-0.8,29.88,North,0,11.0,12.0,66,0.00,,,0.00,meteohub,2013-12-20 10:02:00,
2013-12-20 04:07:00,8.2,-0.8,29.87,North,0,10.0,12.0,66,0.00,,,0.00,meteohub,2013-12-20 10:07:00,
2013-12-20 04:12:00,8.2,-0.4,29.88,North,0,11.0,12.0,67,0.00,,,0.00,meteohub,2013-12-20 10:12:00,
2013-12-20 04:17:00,8.4,-0.2,29.88,North,0,12.0,13.0,67,0.00,,,0.00,meteohub,2013-12-20 10:17:00,
2013-12-20 04:22:00,8.8,-0.2,29.88,North,0,12.0,13.0,66,0.00,,,0.00,meteohub,2013-12-20 10:22:00,
2013-12-20 04:28:00,9.0,0.0,29.88,North,0,12.0,14.0,66,0.00,,,0.00,meteohub,2013-12-20 10:28:00,
2013-12-20 04:33:00,9.0,0.0,29.88,North,0,11.0,15.0,66,0.00,,,0.00,meteohub,2013-12-20 10:33:00,
2013-12-20 04:38:00,9.0,0.0,29.88,North,0,11.0,15.0,66,0.00,,,0.00,meteohub,2013-12-20 10:38:00,
2013-12-20 04:43:00,9.0,-0.4,29.88,North,0,11.0,15.0,65,0.00,,,0.00,meteohub,2013-12-20 10:43:00,
2013-12-20 04:48:00,9.1,-0.2,29.87,North,0,11.0,15.0,65,0.00,,,0.00,meteohub,2013-12-20 10:48:00,
2013-12-20 04:53:00,9.0,-0.4,29.88,North,0,12.0,15.0,65,0.00,,,0.00,meteohub,2013-12-20 10:53:00,
2013-12-20 04:58:00,8.8,-0.6,29.88,North,0,12.0,14.0,65,0.00,,,0.00,meteohub,2013-12-20 10:58:00,
2013-12-20 05:03:00,8.6,-1.1,29.88,North,0,11.0,13.0,64,0.00,,,0.00,meteohub,2013-12-20 11:03:00,
2013-12-20 05:09:00,8.4,-0.9,29.88,North,0,11.0,12.0,65,0.00,,,0.00,meteohub,2013-12-20 11:09:00,
2013-12-20 05:14:00,8.4,-0.9,29.88,North,0,12.0,12.0,65,0.00,,,0.00,meteohub,2013-12-20 11:14:00,
2013-12-20 05:19:00,8.6,-1.1,29.89,NW,315,13.0,14.0,64,0.00,,,0.00,meteohub,2013-12-20 11:19:00,
2013-12-20 05:24:00,8.6,-1.1,29.88,North,0,13.0,14.0,64,0.00,,,0.00,meteohub,2013-12-20 11:24:00,
2013-12-20 05:29:00,8.6,-1.1,29.88,NNW,338,16.0,16.0,64,0.00,,,0.00,meteohub,2013-12-20 11:29:00,
2013-12-20 05:34:00,8.6,-1.1,29.88,North,0,14.0,15.0,64,0.00,,,0.00,meteohub,2013-12-20 11:34:00,
2013-12-20 05:40:00,8.4,-0.9,29.88,North,0,12.0,16.0,65,0.00,,,0.00,meteohub,2013-12-20 11:40:00,
2013-12-20 05:45:00,8.6,-1.1,29.88,North,0,12.0,15.0,64,0.00,,,0.00,meteohub,2013-12-20 11:45:00,
2013-12-20 05:51:00,8.8,-0.9,29.88,North,0,15.0,15.0,64,0.00,,,0.00,meteohub,2013-12-20 11:51:00,
2013-12-20 05:56:00,8.8,-0.9,29.88,North,0,12.0,15.0,64,0.00,,,0.00,meteohub,2013-12-20 11:56:00,
2013-12-20 06:01:00,8.8,-0.9,29.88,North,0,14.0,15.0,64,0.00,,,0.00,meteohub,2013-12-20 12:01:00,
2013-12-20 06:07:00,9.0,-0.8,29.88,North,0,12.0,15.0,64,0.00,,,0.00,meteohub,2013-12-20 12:07:00,
2013-12-20 06:12:00,9.0,-0.8,29.88,North,0,12.0,14.0,64,0.00,,,0.00,meteohub,2013-12-20 12:12:00,
2013-12-20 06:17:00,9.1,-0.6,29.88,North,0,12.0,14.0,64,0.00,,,0.00,meteohub,2013-12-20 12:17:00,
2013-12-20 06:22:00,9.3,-0.4,29.88,North,0,12.0,14.0,64,0.00,,,0.00,meteohub,2013-12-20 12:22:00,
2013-12-20 06:27:00,9.5,-0.2,29.89,North,0,10.0,14.0,64,0.00,,,0.00,meteohub,2013-12-20 12:27:00,
2013-12-20 06:32:00,9.7,0.0,29.88,North,0,11.0,13.0,64,0.00,,,0.00,meteohub,2013-12-20 12:32:00,
2013-12-20 06:37:00,9.9,0.1,29.88,WNW,293,11.0,14.0,64,0.00,,,0.00,meteohub,2013-12-20 12:37:00,
2013-12-20 06:42:00,10.0,0.7,29.88,North,0,12.0,14.0,65,0.00,,,0.00,meteohub,2013-12-20 12:42:00,
2013-12-20 06:47:00,10.2,0.9,29.88,North,0,12.0,14.0,65,0.00,,,0.00,meteohub,2013-12-20 12:47:00,
2013-12-20 06:53:00,10.4,2.3,29.88,North,0,12.0,14.0,69,0.00,,,0.00,meteohub,2013-12-20 12:53:00,
2013-12-20 06:58:00,10.6,2.5,29.88,North,0,12.0,14.0,69,0.00,,,0.00,meteohub,2013-12-20 12:58:00,
2013-12-20 07:03:00,10.8,2.7,29.88,North,0,14.0,14.0,69,0.00,,,0.00,meteohub,2013-12-20 13:03:00,
2013-12-20 07:08:00,10.8,2.7,29.88,North,0,11.0,14.0,69,0.00,,,0.00,meteohub,2013-12-20 13:08:00,
2013-12-20 07:13:00,10.8,2.7,29.88,North,0,11.0,14.0,69,0.00,,,0.00,meteohub,2013-12-20 13:13:00,
2013-12-20 07:19:00,10.8,2.7,29.88,North,0,11.0,14.0,69,0.00,,,0.00,meteohub,2013-12-20 13:19:00,
2013-12-20 07:24:00,10.9,2.8,29.88,NW,315,11.0,14.0,69,0.00,,,0.00,meteohub,2013-12-20 13:24:00,
2013-12-20 07:30:00,10.4,1.9,29.88,NW,315,11.0,14.0,68,0.00,,,0.00,meteohub,2013-12-20 13:30:00,
2013-12-20 07:35:00,10.0,0.3,29.88,North,0,10.0,13.0,64,0.00,,,0.00,meteohub,2013-12-20 13:35:00,
2013-12-20 07:40:00,9.9,0.1,29.88,NW,315,12.0,13.0,64,0.00,,,0.00,meteohub,2013-12-20 13:40:00,
2013-12-20 07:45:00,9.9,0.1,29.88,NW,315,11.0,13.0,64,0.00,,,0.00,meteohub,2013-12-20 13:45:00,
2013-12-20 07:51:00,9.7,0.0,29.88,NW,315,12.0,13.0,64,0.00,,,0.00,meteohub,2013-12-20 13:51:00,
2013-12-20 07:56:00,9.5,-0.2,29.88,NW,315,13.0,13.0,64,0.00,,,0.00,meteohub,2013-12-20 13:56:00,
2013-12-20 08:01:00,9.1,-0.6,29.88,North,0,13.0,15.0,64,0.00,,,0.00,meteohub,2013-12-20 14:01:00,
2013-12-20 08:06:00,9.0,-0.8,29.88,North,0,15.0,15.0,64,0.00,,,0.00,meteohub,2013-12-20 14:06:00,
2013-12-20 08:12:00,9.0,-0.8,29.88,North,0,15.0,15.0,64,0.00,,,0.00,meteohub,2013-12-20 14:12:00,
2013-12-20 08:17:00,8.6,-1.1,29.88,NW,315,11.0,15.0,64,0.00,,,0.00,meteohub,2013-12-20 14:17:00,
2013-12-20 08:22:00,8.8,-0.9,29.89,North,0,14.0,15.0,64,0.00,,,0.00,meteohub,2013-12-20 14:22:00,
2013-12-20 08:27:00,8.6,-1.1,29.89,NW,315,16.0,16.0,64,0.00,,,0.00,meteohub,2013-12-20 14:27:00,
2013-12-20 08:33:00,8.6,-1.1,29.89,NW,315,15.0,16.0,64,0.00,,,0.00,meteohub,2013-12-20 14:33:00,
2013-12-20 08:38:00,8.4,-1.3,29.89,North,0,16.0,16.0,64,0.00,,,0.00,meteohub,2013-12-20 14:38:00,
2013-12-20 08:43:00,8.4,-1.3,29.88,North,0,16.0,17.0,64,0.00,,,0.00,meteohub,2013-12-20 14:43:00,
2013-12-20 08:48:00,8.2,-1.5,29.88,NW,315,15.0,17.0,64,0.00,,,0.00,meteohub,2013-12-20 14:48:00,
2013-12-20 08:53:00,8.1,-1.7,29.88,NW,315,15.0,17.0,64,0.00,,,0.00,meteohub,2013-12-20 14:53:00,
2013-12-20 08:58:00,8.1,-1.7,29.88,North,0,15.0,17.0,64,0.00,,,0.00,meteohub,2013-12-20 14:58:00,
2013-12-20 09:03:00,7.9,-2.0,29.88,North,0,14.0,17.0,63,0.00,,,0.00,meteohub,2013-12-20 15:03:00,
2013-12-20 09:09:00,7.9,-2.0,29.89,NW,315,15.0,17.0,63,0.00,,,0.00,meteohub,2013-12-20 15:09:00,
2013-12-20 09:14:00,7.7,-2.2,29.88,North,0,14.0,16.0,63,0.00,,,0.00,meteohub,2013-12-20 15:14:00,
2013-12-20 09:19:00,7.7,-2.2,29.88,North,0,15.0,16.0,63,0.00,,,0.00,meteohub,2013-12-20 15:19:00,
2013-12-20 09:24:00,7.5,-2.4,29.88,North,0,14.0,16.0,63,0.00,,,0.00,meteohub,2013-12-20 15:24:00,
2013-12-20 11:31:00,9.3,-1.5,29.84,North,0,11.0,13.0,61,0.00,,,0.00,meteohub,2013-12-20 17:31:00,
2013-12-20 11:36:00,9.5,-1.3,29.83,North,0,9.0,13.0,61,0.00,,,0.00,meteohub,2013-12-20 17:36:00,
2013-12-20 11:41:00,9.7,-1.5,29.83,North,0,12.0,12.0,60,0.00,,,0.00,meteohub,2013-12-20 17:41:00,
2013-12-20 11:46:00,9.9,-1.3,29.84,NW,315,13.0,13.0,60,0.00,,,0.00,meteohub,2013-12-20 17:46:00,
2013-12-20 11:52:00,9.7,-1.5,29.84,NW,315,12.0,13.0,60,0.00,,,0.00,meteohub,2013-12-20 17:52:00,
2013-12-20 11:57:00,9.9,-1.3,29.84,NW,315,13.0,13.0,60,0.00,,,0.00,meteohub,2013-12-20 17:57:00,
2013-12-20 12:02:00,9.9,-1.3,29.83,NW,315,10.0,13.0,60,0.00,,,0.00,meteohub,2013-12-20 18:02:00,
2013-12-20 12:08:00,10.0,-1.1,29.83,NW,315,11.0,13.0,60,0.00,,,0.00,meteohub,2013-12-20 18:08:00,
2013-12-20 12:13:00,10.2,-0.9,29.82,North,0,11.0,13.0,60,0.00,,,0.00,meteohub,2013-12-20 18:13:00,
2013-12-20 12:18:00,10.4,0.7,29.82,NW,315,11.0,14.0,64,0.00,,,0.00,meteohub,2013-12-20 18:18:00,
2013-12-20 12:23:00,10.8,1.0,29.82,NW,315,10.0,14.0,64,0.00,,,0.00,meteohub,2013-12-20 18:23:00,
2013-12-20 12:28:00,10.8,0.7,29.83,West,270,11.0,14.0,63,0.00,,,0.00,meteohub,2013-12-20 18:28:00,
2013-12-20 12:34:00,10.0,-1.5,29.83,NW,315,11.0,11.0,59,0.00,,,0.00,meteohub,2013-12-20 18:34:00,
2013-12-20 12:39:00,9.9,-1.7,29.82,North,0,11.0,13.0,59,0.00,,,0.00,meteohub,2013-12-20 18:39:00,
2013-12-20 12:44:00,9.5,-2.0,29.82,NW,315,14.0,14.0,59,0.00,,,0.00,meteohub,2013-12-20 18:44:00,
2013-12-20 12:49:00,9.3,-2.0,29.82,NW,315,15.0,15.0,59,0.00,,,0.00,meteohub,2013-12-20 18:49:00,
2013-12-20 12:55:00,9.3,-2.0,29.83,NW,315,12.0,15.0,59,0.00,,,0.00,meteohub,2013-12-20 18:55:00,
2013-12-20 13:00:00,9.5,-1.7,29.83,NW,315,14.0,15.0,60,0.00,,,0.00,meteohub,2013-12-20 19:00:00,
2013-12-20 13:05:00,9.5,-1.7,29.82,WNW,293,11.0,14.0,60,0.00,,,0.00,meteohub,2013-12-20 19:05:00,
2013-12-20 13:10:00,9.7,-1.5,29.82,NW,315,11.0,14.0,60,0.00,,,0.00,meteohub,2013-12-20 19:10:00,
2013-12-20 13:16:00,9.7,-1.5,29.82,North,0,10.0,14.0,60,0.00,,,0.00,meteohub,2013-12-20 19:16:00,
2013-12-20 13:21:00,9.7,-1.5,29.82,NW,315,10.0,14.0,60,0.00,,,0.00,meteohub,2013-12-20 19:21:00,
2013-12-20 13:26:00,9.5,-1.7,29.81,North,0,11.0,13.0,60,0.00,,,0.00,meteohub,2013-12-20 19:26:00,
2013-12-20 13:32:00,9.5,-1.7,29.82,WNW,293,11.0,11.0,60,0.00,,,0.00,meteohub,2013-12-20 19:32:00,
2013-12-20 13:34:00,9.5,-1.7,29.82,NW,315,11.0,11.0,60,0.00,,,0.00,meteohub,2013-12-20 19:34:00,
2013-12-20 13:39:00,9.5,-1.7,29.81,NW,315,10.0,11.0,60,0.00,,,0.00,meteohub,2013-12-20 19:39:00,
2013-12-20 13:44:00,9.3,-1.8,29.81,West,270,11.0,12.0,60,0.00,,,0.00,meteohub,2013-12-20 19:44:00,
2013-12-20 13:49:00,9.3,-1.8,29.81,North,0,11.0,12.0,60,0.00,,,0.00,meteohub,2013-12-20 19:49:00,
2013-12-20 13:55:00,9.5,-1.7,29.81,NW,315,15.0,15.0,60,0.00,,,0.00,meteohub,2013-12-20 19:55:00,
2013-12-20 14:00:00,9.3,-1.8,29.81,NW,315,15.0,15.0,60,0.00,,,0.00,meteohub,2013-12-20 20:00:00,
2013-12-20 14:05:00,9.1,-1.8,29.81,North,0,13.0,15.0,60,0.00,,,0.00,meteohub,2013-12-20 20:05:00,
2013-12-20 14:10:00,9.3,-1.8,29.81,West,270,15.0,15.0,60,0.00,,,0.00,meteohub,2013-12-20 20:10:00,
2013-12-20 14:15:00,9.5,-1.7,29.81,North,0,15.0,15.0,60,0.00,,,0.00,meteohub,2013-12-20 20:15:00,
2013-12-20 14:20:00,9.1,-1.8,29.81,NW,315,13.0,15.0,60,0.00,,,0.00,meteohub,2013-12-20 20:20:00,
2013-12-20 14:24:00,9.3,-1.8,29.81,NW,315,13.0,15.0,60,0.00,,,0.00,meteohub,2013-12-20 20:24:00,
2013-12-20 14:32:00,9.5,-1.7,29.80,NW,315,15.0,15.0,60,0.00,,,0.00,meteohub,2013-12-20 20:32:00,
2013-12-20 14:40:00,9.1,-1.8,29.80,NW,315,12.0,16.0,60,0.00,,,0.00,meteohub,2013-12-20 20:40:00,
2013-12-20 14:46:00,9.0,-2.0,29.80,North,0,15.0,16.0,60,0.00,,,0.00,meteohub,2013-12-20 20:46:00,
2013-12-20 14:51:00,9.3,-1.8,29.80,NW,315,13.0,16.0,60,0.00,,,0.00,meteohub,2013-12-20 20:51:00,
2013-12-20 14:56:00,9.3,-1.8,29.80,West,270,11.0,15.0,60,0.00,,,0.00,meteohub,2013-12-20 20:56:00,
2013-12-20 15:01:00,9.1,-1.8,29.80,NW,315,12.0,15.0,60,0.00,,,0.00,meteohub,2013-12-20 21:01:00,
2013-12-20 15:06:00,9.1,-1.8,29.79,West,270,11.0,14.0,60,0.00,,,0.00,meteohub,2013-12-20 21:06:00,
2013-12-20 15:11:00,9.0,-2.0,29.79,WNW,293,11.0,13.0,60,0.00,,,0.00,meteohub,2013-12-20 21:11:00,
2013-12-20 15:16:00,9.1,-1.8,29.78,NW,315,11.0,12.0,60,0.00,,,0.00,meteohub,2013-12-20 21:16:00,
2013-12-20 15:20:00,9.1,-1.8,29.78,NW,315,11.0,12.0,60,0.00,,,0.00,meteohub,2013-12-20 21:20:00,
2013-12-20 15:22:00,9.1,-1.8,29.78,North,0,10.0,11.0,60,0.00,,,0.00,meteohub,2013-12-20 21:22:00,
2013-12-20 15:32:00,9.1,-1.8,29.78,NW,315,11.0,11.0,60,0.00,,,0.00,meteohub,2013-12-20 21:32:00,
2013-12-20 15:37:00,9.1,-1.7,29.78,NW,315,11.0,12.0,61,0.00,,,0.00,meteohub,2013-12-20 21:37:00,
2013-12-20 15:42:00,9.1,-1.7,29.77,North,0,9.0,12.0,61,0.00,,,0.00,meteohub,2013-12-20 21:42:00,
2013-12-20 15:47:00,9.1,-1.7,29.77,NW,315,6.0,12.0,61,0.00,,,0.00,meteohub,2013-12-20 21:47:00,
2013-12-20 15:52:00,9.0,-1.7,29.77,WNW,293,5.0,11.0,61,0.00,,,0.00,meteohub,2013-12-20 21:52:00,
2013-12-20 15:58:00,9.1,-1.7,29.77,West,270,4.0,11.0,61,0.00,,,0.00,meteohub,2013-12-20 21:58:00,
2013-12-20 16:03:00,9.1,-1.7,29.76,NW,315,7.0,9.0,61,0.00,,,0.00,meteohub,2013-12-20 22:03:00,
2013-12-20 16:08:00,9.0,-1.7,29.77,West,270,4.0,7.0,61,0.00,,,0.00,meteohub,2013-12-20 22:08:00,
2013-12-20 16:14:00,9.1,-1.7,29.77,NW,315,6.0,8.0,61,0.00,,,0.00,meteohub,2013-12-20 22:14:00,
2013-12-20 16:19:00,9.1,-1.7,29.77,North,0,8.0,8.0,61,0.00,,,0.00,meteohub,2013-12-20 22:19:00,
2013-12-20 16:24:00,9.1,-1.7,29.76,NW,315,10.0,10.0,61,0.00,,,0.00,meteohub,2013-12-20 22:24:00,
2013-12-20 16:29:00,9.0,-1.7,29.76,NW,315,11.0,11.0,61,0.00,,,0.00,meteohub,2013-12-20 22:29:00,
2013-12-20 16:34:00,9.5,-1.3,29.77,NW,315,9.0,11.0,61,0.00,,,0.00,meteohub,2013-12-20 22:34:00,
2013-12-20 16:39:00,9.3,-1.5,29.77,West,270,8.0,11.0,61,0.00,,,0.00,meteohub,2013-12-20 22:39:00,
2013-12-20 16:44:00,9.1,-1.7,29.77,North,0,10.0,11.0,61,0.00,,,0.00,meteohub,2013-12-20 22:44:00,
2013-12-20 16:50:00,9.3,-1.5,29.77,NW,315,11.0,11.0,61,0.00,,,0.00,meteohub,2013-12-20 22:50:00,
2013-12-20 16:55:00,9.3,-1.5,29.78,NW,315,12.0,12.0,61,0.00,,,0.00,meteohub,2013-12-20 22:55:00,
2013-12-20 17:00:00,9.3,-1.5,29.78,NW,315,11.0,13.0,61,0.00,,,0.00,meteohub,2013-12-20 23:00:00,
2013-12-20 17:05:00,9.5,-0.9,29.77,NW,315,13.0,14.0,62,0.00,,,0.00,meteohub,2013-12-20 23:05:00,
2013-12-20 17:10:00,9.5,-0.9,29.78,NW,315,13.0,14.0,62,0.00,,,0.00,meteohub,2013-12-20 23:10:00,
2013-12-20 17:16:00,9.5,-0.9,29.78,NW,315,12.0,13.0,62,0.00,,,0.00,meteohub,2013-12-20 23:16:00,
2013-12-20 17:21:00,9.9,-0.6,29.78,NW,315,14.0,14.0,62,0.00,,,0.00,meteohub,2013-12-20 23:21:00,
2013-12-20 17:26:00,9.7,-0.8,29.77,NW,315,13.0,14.0,62,0.00,,,0.00,meteohub,2013-12-20 23:26:00,
2013-12-20 17:31:00,9.5,-0.9,29.78,West,270,13.0,14.0,62,0.00,,,0.00,meteohub,2013-12-20 23:31:00,
2013-12-20 17:37:00,9.5,-0.9,29.78,NW,315,13.0,14.0,62,0.00,,,0.00,meteohub,2013-12-20 23:37:00,
2013-12-20 17:42:00,9.5,-0.9,29.78,NW,315,10.0,13.0,62,0.00,,,0.00,meteohub,2013-12-20 23:42:00,
2013-12-20 17:47:00,9.7,-0.8,29.78,NW,315,11.0,13.0,62,0.00,,,0.00,meteohub,2013-12-20 23:47:00,
2013-12-20 17:53:00,9.7,-0.8,29.77,West,270,11.0,13.0,62,0.00,,,0.00,meteohub,2013-12-20 23:53:00,
2013-12-20 17:58:00,9.9,-0.6,29.76,West,270,10.0,12.0,62,0.00,,,0.00,meteohub,2013-12-20 23:58:00,
2013-12-20 18:04:00,9.7,-0.8,29.77,NW,315,11.0,11.0,62,0.00,,,0.00,meteohub,2013-12-21 00:04:00,
2013-12-20 18:09:00,9.7,-0.8,29.77,West,270,10.0,11.0,62,0.00,,,0.00,meteohub,2013-12-21 00:09:00,
2013-12-20 18:14:00,9.5,-0.9,29.77,NW,315,10.0,11.0,62,0.00,,,0.00,meteohub,2013-12-21 00:14:00,
2013-12-20 18:19:00,9.5,-0.9,29.77,NW,315,9.0,11.0,62,0.00,,,0.00,meteohub,2013-12-21 00:19:00,
2013-12-20 18:24:00,9.5,-0.9,29.77,West,270,8.0,11.0,62,0.00,,,0.00,meteohub,2013-12-21 00:24:00,
2013-12-20 18:29:00,9.5,-0.9,29.77,West,270,9.0,10.0,62,0.00,,,0.00,meteohub,2013-12-21 00:29:00,
2013-12-20 18:35:00,9.5,-0.9,29.77,West,270,8.0,10.0,62,0.00,,,0.00,meteohub,2013-12-21 00:35:00,
2013-12-20 18:40:00,9.7,-0.8,29.78,NW,315,8.0,11.0,62,0.00,,,0.00,meteohub,2013-12-21 00:40:00,
2013-12-20 18:46:00,9.5,-0.9,29.78,West,270,9.0,11.0,62,0.00,,,0.00,meteohub,2013-12-21 00:46:00,
2013-12-20 18:51:00,9.5,-0.6,29.78,West,270,9.0,9.0,63,0.00,,,0.00,meteohub,2013-12-21 00:51:00,
2013-12-20 18:56:00,9.7,-0.4,29.77,West,270,8.0,9.0,63,0.00,,,0.00,meteohub,2013-12-21 00:56:00,
2013-12-20 19:01:00,9.5,-0.9,29.78,West,270,8.0,9.0,62,0.00,,,0.00,meteohub,2013-12-21 01:01:00,
2013-12-20 19:07:00,9.7,-0.8,29.77,West,270,6.0,9.0,62,0.00,,,0.00,meteohub,2013-12-21 01:07:00,
2013-12-20 19:12:00,9.7,-0.8,29.78,WNW,293,7.0,9.0,62,0.00,,,0.00,meteohub,2013-12-21 01:12:00,
2013-12-20 19:17:00,9.7,-0.8,29.77,West,270,7.0,9.0,62,0.00,,,0.00,meteohub,2013-12-21 01:17:00,
2013-12-20 19:22:00,9.7,-0.8,29.76,West,270,7.0,9.0,62,0.00,,,0.00,meteohub,2013-12-21 01:22:00,
2013-12-20 19:27:00,9.7,-0.8,29.76,West,270,8.0,9.0,62,0.00,,,0.00,meteohub,2013-12-21 01:27:00,
2013-12-20 19:32:00,9.7,-0.8,29.76,West,270,8.0,9.0,62,0.00,,,0.00,meteohub,2013-12-21 01:32:00,
2013-12-20 19:38:00,9.7,-0.8,29.76,West,270,7.0,9.0,62,0.00,,,0.00,meteohub,2013-12-21 01:38:00,
2013-12-20 19:43:00,9.5,-0.9,29.76,NW,315,7.0,8.0,62,0.00,,,0.00,meteohub,2013-12-21 01:43:00,
2013-12-20 19:48:00,9.5,-0.9,29.76,West,270,7.0,8.0,62,0.00,,,0.00,meteohub,2013-12-21 01:48:00,
2013-12-20 19:53:00,9.5,-0.9,29.76,West,270,8.0,8.0,62,0.00,,,0.00,meteohub,2013-12-21 01:53:00,
2013-12-20 19:59:00,9.5,-0.9,29.76,NW,315,9.0,9.0,62,0.00,,,0.00,meteohub,2013-12-21 01:59:00,
2013-12-20 20:01:00,9.5,-0.9,29.76,NW,315,8.0,9.0,62,0.00,,,0.00,meteohub,2013-12-21 02:01:00,
2013-12-20 20:12:00,9.5,-0.9,29.75,West,270,5.0,9.0,62,0.00,,,0.00,meteohub,2013-12-21 02:12:00,
2013-12-20 20:17:00,9.5,-0.9,29.75,West,270,4.0,8.0,62,0.00,,,0.00,meteohub,2013-12-21 02:17:00,
2013-12-20 20:22:00,9.9,-0.6,29.75,West,270,5.0,8.0,62,0.00,,,0.00,meteohub,2013-12-21 02:22:00,
2013-12-20 20:28:00,9.9,-0.6,29.75,West,270,7.0,8.0,62,0.00,,,0.00,meteohub,2013-12-21 02:28:00,
2013-12-20 20:33:00,10.0,-0.4,29.76,West,270,8.0,8.0,62,0.00,,,0.00,meteohub,2013-12-21 02:33:00,
2013-12-20 20:38:00,10.0,-0.4,29.75,West,270,8.0,8.0,62,0.00,,,0.00,meteohub,2013-12-21 02:38:00,
2013-12-20 20:43:00,10.0,-0.4,29.75,West,270,5.0,8.0,62,0.00,,,0.00,meteohub,2013-12-21 02:43:00,
2013-12-20 20:48:00,10.0,-0.4,29.74,West,270,4.0,8.0,62,0.00,,,0.00,meteohub,2013-12-21 02:48:00,
2013-12-20 20:50:00,10.0,-0.4,29.74,West,270,6.0,8.0,62,0.00,,,0.00,meteohub,2013-12-21 02:50:00,
2013-12-20 21:02:00,10.0,-0.4,29.74,West,270,5.0,7.0,62,0.00,,,0.00,meteohub,2013-12-21 03:02:00,
2013-12-20 21:07:00,10.0,-0.4,29.74,West,270,5.0,7.0,62,0.00,,,0.00,meteohub,2013-12-21 03:07:00,
2013-12-20 21:12:00,10.0,-0.4,29.73,West,270,5.0,7.0,62,0.00,,,0.00,meteohub,2013-12-21 03:12:00,
2013-12-20 21:17:00,10.2,-0.2,29.73,West,270,2.0,7.0,62,0.00,,,0.00,meteohub,2013-12-21 03:17:00,
2013-12-20 21:23:00,10.0,-0.4,29.72,West,270,2.0,7.0,62,0.00,,,0.00,meteohub,2013-12-21 03:23:00,
2013-12-20 21:28:00,10.2,-0.2,29.73,West,270,3.0,5.0,62,0.00,,,0.00,meteohub,2013-12-21 03:28:00,
2013-12-20 21:33:00,10.4,1.2,29.73,West,270,5.0,5.0,66,0.00,,,0.00,meteohub,2013-12-21 03:33:00,
2013-12-20 21:39:00,10.4,1.2,29.72,NW,315,6.0,6.0,66,0.00,,,0.00,meteohub,2013-12-21 03:39:00,
2013-12-20 21:44:00,10.2,-0.2,29.71,West,270,6.0,7.0,62,0.00,,,0.00,meteohub,2013-12-21 03:44:00,
2013-12-20 21:49:00,10.0,-0.4,29.72,NW,315,4.0,7.0,62,0.00,,,0.00,meteohub,2013-12-21 03:49:00,
2013-12-20 21:54:00,10.0,-0.4,29.72,West,270,5.0,7.0,62,0.00,,,0.00,meteohub,2013-12-21 03:54:00,
2013-12-20 22:00:00,10.0,-0.4,29.72,NW,315,5.0,7.0,62,0.00,,,0.00,meteohub,2013-12-21 04:00:00,
2013-12-20 22:05:00,10.0,-0.4,29.72,NW,315,7.0,7.0,62,0.00,,,0.00,meteohub,2013-12-21 04:05:00,
2013-12-20 22:10:00,10.0,-0.4,29.72,NW,315,6.0,8.0,62,0.00,,,0.00,meteohub,2013-12-21 04:10:00,
2013-12-20 22:16:00,9.9,-0.6,29.73,West,270,8.0,8.0,62,0.00,,,0.00,meteohub,2013-12-21 04:16:00,
2013-12-20 22:21:00,10.0,-0.4,29.72,NW,315,8.0,8.0,62,0.00,,,0.00,meteohub,2013-12-21 04:21:00,
2013-12-20 22:26:00,10.0,-0.4,29.72,NW,315,8.0,8.0,62,0.00,,,0.00,meteohub,2013-12-21 04:26:00,
2013-12-20 22:31:00,10.0,-0.4,29.72,NW,315,7.0,9.0,62,0.00,,,0.00,meteohub,2013-12-21 04:31:00,
2013-12-20 22:36:00,10.2,-0.2,29.72,NW,315,7.0,9.0,62,0.00,,,0.00,meteohub,2013-12-21 04:36:00,
2013-12-20 22:41:00,10.0,-0.4,29.72,NW,315,8.0,9.0,62,0.00,,,0.00,meteohub,2013-12-21 04:41:00,
2013-12-20 22:46:00,10.2,-0.2,29.73,NW,315,8.0,8.0,62,0.00,,,0.00,meteohub,2013-12-21 04:46:00,
2013-12-20 22:52:00,10.2,-0.2,29.73,West,270,6.0,8.0,62,0.00,,,0.00,meteohub,2013-12-21 04:52:00,
2013-12-20 22:57:00,10.2,0.1,29.73,West,270,5.0,8.0,63,0.00,,,0.00,meteohub,2013-12-21 04:57:00,
2013-12-20 23:01:00,10.4,1.6,29.73,West,270,5.0,8.0,67,0.00,,,0.00,meteohub,2013-12-21 05:01:00,
2013-12-20 23:02:00,10.4,1.6,29.73,West,270,5.0,8.0,67,0.00,,,0.00,meteohub,2013-12-21 05:02:00,
2013-12-20 23:03:00,10.6,1.8,29.73,West,270,5.0,8.0,67,0.00,,,0.00,meteohub,2013-12-21 05:03:00,
2013-12-20 23:07:00,10.6,1.8,29.73,West,270,6.0,6.0,67,0.00,,,0.00,meteohub,2013-12-21 05:07:00,
2013-12-20 23:12:00,10.6,1.4,29.73,West,270,7.0,7.0,66,0.00,,,0.00,meteohub,2013-12-21 05:12:00,
2013-12-20 23:18:00,10.6,1.4,29.74,West,270,9.0,9.0,66,0.00,,,0.00,meteohub,2013-12-21 05:18:00,
2013-12-20 23:23:00,10.4,1.2,29.73,West,270,8.0,10.0,66,0.00,,,0.00,meteohub,2013-12-21 05:23:00,
2013-12-20 23:28:00,10.6,1.4,29.73,West,270,7.0,10.0,66,0.00,,,0.00,meteohub,2013-12-21 05:28:00,
2013-12-20 23:33:00,10.6,1.8,29.74,West,270,8.0,10.0,67,0.00,,,0.00,meteohub,2013-12-21 05:33:00,
2013-12-20 23:39:00,10.6,1.8,29.73,NW,315,5.0,9.0,67,0.00,,,0.00,meteohub,2013-12-21 05:39:00,
2013-12-20 23:44:00,10.6,1.8,29.73,NW,315,7.0,8.0,67,0.00,,,0.00,meteohub,2013-12-21 05:44:00,
2013-12-20 23:49:00,10.6,1.8,29.73,NW,315,6.0,8.0,67,0.00,,,0.00,meteohub,2013-12-21 05:49:00,
2013-12-20 23:54:00,10.6,1.8,29.73,NW,315,8.0,8.0,67,0.00,,,0.00,meteohub,2013-12-21 05:54:00,